sensor_id;sensor_type;location;lat;lon;timestamp;P1;durP1;ratioP1;P2;durP2;ratioP2
32746;SDS011;19118;50.860;13.662;2024-01-06T00:00:18;8.10;;;2.20;;
32746;SDS011;19118;50.860;13.662;2024-01-06T00:05:22;10.68;;;2.67;;
32746;SDS011;19118;50.860;13.662;2024-01-06T00:10:22;8.83;;;2.83;;
32746;SDS011;19118;50.860;13.662;2024-01-06T00:15:23;7.57;;;1.83;;
32746;SDS011;19118;50.860;13.662;2024-01-06T00:20:24;8.93;;;2.38;;
32746;SDS011;19118;50.860;13.662;2024-01-06T00:25:24;9.33;;;2.00;;
32746;SDS011;19118;50.860;13.662;2024-01-06T00:30:24;11.67;;;2.83;;
32746;SDS011;19118;50.860;13.662;2024-01-06T00:35:25;8.50;;;2.47;;
32746;SDS011;19118;50.860;13.662;2024-01-06T00:40:25;6.05;;;2.80;;
32746;SDS011;19118;50.860;13.662;2024-01-06T00:45:25;8.88;;;2.53;;
32746;SDS011;19118;50.860;13.662;2024-01-06T00:50:26;6.53;;;2.77;;
32746;SDS011;19118;50.860;13.662;2024-01-06T00:55:26;6.40;;;2.37;;
32746;SDS011;19118;50.860;13.662;2024-01-06T01:00:26;9.33;;;2.90;;
32746;SDS011;19118;50.860;13.662;2024-01-06T01:05:27;5.68;;;2.72;;
32746;SDS011;19118;50.860;13.662;2024-01-06T01:10:27;12.30;;;2.40;;
32746;SDS011;19118;50.860;13.662;2024-01-06T01:15:27;11.75;;;2.53;;
32746;SDS011;19118;50.860;13.662;2024-01-06T01:20:28;11.67;;;2.60;;
32746;SDS011;19118;50.860;13.662;2024-01-06T01:25:28;9.90;;;2.70;;
32746;SDS011;19118;50.860;13.662;2024-01-06T01:30:28;5.43;;;1.92;;
32746;SDS011;19118;50.860;13.662;2024-01-06T01:35:29;6.05;;;1.88;;
32746;SDS011;19118;50.860;13.662;2024-01-06T01:40:29;6.97;;;2.30;;
32746;SDS011;19118;50.860;13.662;2024-01-06T01:45:29;4.20;;;2.03;;
32746;SDS011;19118;50.860;13.662;2024-01-06T01:50:30;11.55;;;1.70;;
32746;SDS011;19118;50.860;13.662;2024-01-06T01:55:31;10.93;;;2.13;;
32746;SDS011;19118;50.860;13.662;2024-01-06T02:00:31;8.48;;;2.00;;
32746;SDS011;19118;50.860;13.662;2024-01-06T02:05:31;3.97;;;2.00;;
32746;SDS011;19118;50.860;13.662;2024-01-06T02:10:32;6.40;;;1.93;;
32746;SDS011;19118;50.860;13.662;2024-01-06T02:15:32;7.82;;;2.33;;
32746;SDS011;19118;50.860;13.662;2024-01-06T02:20:32;12.63;;;2.10;;
32746;SDS011;19118;50.860;13.662;2024-01-06T02:25:33;11.07;;;2.15;;
32746;SDS011;19118;50.860;13.662;2024-01-06T02:30:35;5.18;;;2.53;;
32746;SDS011;19118;50.860;13.662;2024-01-06T02:35:35;9.27;;;1.93;;
32746;SDS011;19118;50.860;13.662;2024-01-06T02:40:36;9.65;;;2.25;;
32746;SDS011;19118;50.860;13.662;2024-01-06T02:45:36;10.55;;;2.40;;
32746;SDS011;19118;50.860;13.662;2024-01-06T02:50:37;8.87;;;2.47;;
32746;SDS011;19118;50.860;13.662;2024-01-06T02:55:37;4.57;;;3.00;;
32746;SDS011;19118;50.860;13.662;2024-01-06T03:00:37;7.20;;;1.80;;
32746;SDS011;19118;50.860;13.662;2024-01-06T03:05:37;6.75;;;2.33;;
32746;SDS011;19118;50.860;13.662;2024-01-06T03:10:38;5.07;;;2.08;;
32746;SDS011;19118;50.860;13.662;2024-01-06T03:15:38;6.18;;;2.45;;
32746;SDS011;19118;50.860;13.662;2024-01-06T03:20:39;11.45;;;1.95;;
32746;SDS011;19118;50.860;13.662;2024-01-06T03:25:39;8.87;;;2.00;;
32746;SDS011;19118;50.860;13.662;2024-01-06T03:30:39;6.80;;;1.83;;
32746;SDS011;19118;50.860;13.662;2024-01-06T03:35:40;7.50;;;2.08;;
32746;SDS011;19118;50.860;13.662;2024-01-06T03:40:40;12.85;;;2.47;;
32746;SDS011;19118;50.860;13.662;2024-01-06T03:45:40;10.00;;;2.10;;
32746;SDS011;19118;50.860;13.662;2024-01-06T03:50:40;4.45;;;1.83;;
32746;SDS011;19118;50.860;13.662;2024-01-06T03:55:41;5.80;;;1.70;;
32746;SDS011;19118;50.860;13.662;2024-01-06T04:00:41;11.00;;;2.25;;
32746;SDS011;19118;50.860;13.662;2024-01-06T04:05:41;8.33;;;2.57;;
32746;SDS011;19118;50.860;13.662;2024-01-06T04:10:42;11.50;;;2.28;;
32746;SDS011;19118;50.860;13.662;2024-01-06T04:15:43;4.63;;;2.10;;
32746;SDS011;19118;50.860;13.662;2024-01-06T04:20:43;6.73;;;2.10;;
32746;SDS011;19118;50.860;13.662;2024-01-06T04:25:43;5.63;;;2.30;;
32746;SDS011;19118;50.860;13.662;2024-01-06T04:30:44;9.50;;;2.97;;
32746;SDS011;19118;50.860;13.662;2024-01-06T04:35:44;7.27;;;2.00;;
32746;SDS011;19118;50.860;13.662;2024-01-06T04:40:44;4.47;;;2.37;;
32746;SDS011;19118;50.860;13.662;2024-01-06T04:45:45;6.38;;;2.25;;
32746;SDS011;19118;50.860;13.662;2024-01-06T04:50:45;6.83;;;3.07;;
32746;SDS011;19118;50.860;13.662;2024-01-06T04:55:45;9.07;;;2.90;;
32746;SDS011;19118;50.860;13.662;2024-01-06T05:00:46;5.60;;;2.53;;
32746;SDS011;19118;50.860;13.662;2024-01-06T05:05:46;9.05;;;2.20;;
32746;SDS011;19118;50.860;13.662;2024-01-06T05:10:46;10.43;;;2.57;;
32746;SDS011;19118;50.860;13.662;2024-01-06T05:15:47;7.95;;;3.15;;
32746;SDS011;19118;50.860;13.662;2024-01-06T05:20:47;9.50;;;2.60;;
32746;SDS011;19118;50.860;13.662;2024-01-06T05:25:48;6.72;;;2.42;;
32746;SDS011;19118;50.860;13.662;2024-01-06T05:30:48;5.00;;;2.37;;
32746;SDS011;19118;50.860;13.662;2024-01-06T05:35:48;4.77;;;2.60;;
32746;SDS011;19118;50.860;13.662;2024-01-06T05:40:49;8.07;;;2.83;;
32746;SDS011;19118;50.860;13.662;2024-01-06T05:45:49;5.80;;;2.55;;
32746;SDS011;19118;50.860;13.662;2024-01-06T05:50:49;7.28;;;2.40;;
32746;SDS011;19118;50.860;13.662;2024-01-06T05:55:50;6.43;;;2.43;;
32746;SDS011;19118;50.860;13.662;2024-01-06T06:00:50;7.85;;;2.55;;
32746;SDS011;19118;50.860;13.662;2024-01-06T06:05:51;9.45;;;2.60;;
32746;SDS011;19118;50.860;13.662;2024-01-06T06:10:51;9.40;;;2.90;;
32746;SDS011;19118;50.860;13.662;2024-01-06T06:16:01;9.50;;;3.53;;
32746;SDS011;19118;50.860;13.662;2024-01-06T06:21:01;8.15;;;2.65;;
32746;SDS011;19118;50.860;13.662;2024-01-06T06:26:06;5.43;;;2.80;;
32746;SDS011;19118;50.860;13.662;2024-01-06T06:31:08;6.00;;;3.15;;
32746;SDS011;19118;50.860;13.662;2024-01-06T06:36:08;7.47;;;2.90;;
32746;SDS011;19118;50.860;13.662;2024-01-06T06:41:09;9.10;;;3.30;;
32746;SDS011;19118;50.860;13.662;2024-01-06T06:46:09;18.10;;;6.97;;
32746;SDS011;19118;50.860;13.662;2024-01-06T06:51:09;11.33;;;5.23;;
32746;SDS011;19118;50.860;13.662;2024-01-06T06:56:10;14.20;;;5.30;;
32746;SDS011;19118;50.860;13.662;2024-01-06T07:01:13;17.47;;;5.63;;
32746;SDS011;19118;50.860;13.662;2024-01-06T07:06:14;17.50;;;7.47;;
32746;SDS011;19118;50.860;13.662;2024-01-06T07:11:15;72.85;;;25.27;;
32746;SDS011;19118;50.860;13.662;2024-01-06T07:16:18;42.17;;;17.13;;
32746;SDS011;19118;50.860;13.662;2024-01-06T07:21:18;14.30;;;6.57;;
32746;SDS011;19118;50.860;13.662;2024-01-06T07:26:19;12.05;;;4.20;;
32746;SDS011;19118;50.860;13.662;2024-01-06T07:31:19;7.13;;;3.57;;
32746;SDS011;19118;50.860;13.662;2024-01-06T07:36:19;9.37;;;2.70;;
32746;SDS011;19118;50.860;13.662;2024-01-06T07:41:21;12.25;;;5.05;;
32746;SDS011;19118;50.860;13.662;2024-01-06T07:46:22;18.48;;;10.52;;
32746;SDS011;19118;50.860;13.662;2024-01-06T07:51:22;30.80;;;14.63;;
32746;SDS011;19118;50.860;13.662;2024-01-06T07:56:22;13.33;;;4.90;;
32746;SDS011;19118;50.860;13.662;2024-01-06T08:01:23;6.07;;;2.87;;
32746;SDS011;19118;50.860;13.662;2024-01-06T08:06:23;6.43;;;2.83;;
32746;SDS011;19118;50.860;13.662;2024-01-06T08:11:23;5.87;;;2.83;;
32746;SDS011;19118;50.860;13.662;2024-01-06T08:16:24;7.57;;;2.80;;
32746;SDS011;19118;50.860;13.662;2024-01-06T08:21:24;6.43;;;3.07;;
32746;SDS011;19118;50.860;13.662;2024-01-06T08:26:24;8.10;;;3.43;;
32746;SDS011;19118;50.860;13.662;2024-01-06T08:31:25;11.73;;;4.13;;
32746;SDS011;19118;50.860;13.662;2024-01-06T08:36:25;6.17;;;2.90;;
32746;SDS011;19118;50.860;13.662;2024-01-06T08:41:25;9.07;;;2.72;;
32746;SDS011;19118;50.860;13.662;2024-01-06T08:46:26;8.10;;;2.37;;
32746;SDS011;19118;50.860;13.662;2024-01-06T08:51:26;6.80;;;3.47;;
32746;SDS011;19118;50.860;13.662;2024-01-06T08:56:27;11.48;;;3.67;;
32746;SDS011;19118;50.860;13.662;2024-01-06T09:01:27;7.03;;;4.13;;
32746;SDS011;19118;50.860;13.662;2024-01-06T09:06:28;9.57;;;3.90;;
32746;SDS011;19118;50.860;13.662;2024-01-06T09:11:28;7.30;;;4.20;;
32746;SDS011;19118;50.860;13.662;2024-01-06T09:16:28;7.30;;;3.73;;
32746;SDS011;19118;50.860;13.662;2024-01-06T09:21:29;10.30;;;3.17;;
32746;SDS011;19118;50.860;13.662;2024-01-06T09:26:29;8.03;;;2.77;;
32746;SDS011;19118;50.860;13.662;2024-01-06T09:31:30;8.17;;;2.97;;
32746;SDS011;19118;50.860;13.662;2024-01-06T09:36:30;11.85;;;3.17;;
32746;SDS011;19118;50.860;13.662;2024-01-06T09:41:31;9.93;;;2.70;;
32746;SDS011;19118;50.860;13.662;2024-01-06T09:46:32;11.07;;;3.38;;
32746;SDS011;19118;50.860;13.662;2024-01-06T09:51:32;11.40;;;2.70;;
32746;SDS011;19118;50.860;13.662;2024-01-06T09:56:37;6.55;;;2.97;;
32746;SDS011;19118;50.860;13.662;2024-01-06T10:01:39;13.60;;;2.95;;
32746;SDS011;19118;50.860;13.662;2024-01-06T10:06:40;9.07;;;3.60;;
32746;SDS011;19118;50.860;13.662;2024-01-06T10:11:41;13.90;;;4.90;;
32746;SDS011;19118;50.860;13.662;2024-01-06T10:16:43;15.27;;;5.93;;
32746;SDS011;19118;50.860;13.662;2024-01-06T10:21:43;15.52;;;4.68;;
32746;SDS011;19118;50.860;13.662;2024-01-06T10:26:44;13.35;;;4.55;;
32746;SDS011;19118;50.860;13.662;2024-01-06T10:31:45;9.13;;;3.53;;
32746;SDS011;19118;50.860;13.662;2024-01-06T10:36:46;14.57;;;5.88;;
32746;SDS011;19118;50.860;13.662;2024-01-06T10:41:48;9.02;;;3.17;;
32746;SDS011;19118;50.860;13.662;2024-01-06T10:46:49;12.80;;;4.18;;
32746;SDS011;19118;50.860;13.662;2024-01-06T10:51:50;6.15;;;2.72;;
32746;SDS011;19118;50.860;13.662;2024-01-06T10:56:51;7.78;;;3.35;;
32746;SDS011;19118;50.860;13.662;2024-01-06T11:01:52;6.78;;;3.35;;
32746;SDS011;19118;50.860;13.662;2024-01-06T11:06:53;8.45;;;3.08;;
32746;SDS011;19118;50.860;13.662;2024-01-06T11:11:54;18.90;;;7.43;;
32746;SDS011;19118;50.860;13.662;2024-01-06T11:16:55;11.45;;;4.03;;
32746;SDS011;19118;50.860;13.662;2024-01-06T11:21:56;7.87;;;2.97;;
32746;SDS011;19118;50.860;13.662;2024-01-06T11:26:56;12.60;;;4.15;;
32746;SDS011;19118;50.860;13.662;2024-01-06T11:37:24;12.23;;;3.28;;
32746;SDS011;19118;50.860;13.662;2024-01-06T11:42:37;22.10;;;8.32;;
32746;SDS011;19118;50.860;13.662;2024-01-06T11:47:40;11.90;;;4.68;;
32746;SDS011;19118;50.860;13.662;2024-01-06T11:52:47;10.02;;;4.35;;
32746;SDS011;19118;50.860;13.662;2024-01-06T11:57:48;13.57;;;4.70;;
32746;SDS011;19118;50.860;13.662;2024-01-06T12:02:49;9.43;;;4.22;;
32746;SDS011;19118;50.860;13.662;2024-01-06T12:07:56;9.40;;;4.40;;
32746;SDS011;19118;50.860;13.662;2024-01-06T12:13:06;13.20;;;4.50;;
32746;SDS011;19118;50.860;13.662;2024-01-06T12:18:10;8.75;;;5.15;;
32746;SDS011;19118;50.860;13.662;2024-01-06T12:23:10;13.38;;;4.63;;
32746;SDS011;19118;50.860;13.662;2024-01-06T12:28:10;13.45;;;4.75;;
32746;SDS011;19118;50.860;13.662;2024-01-06T12:33:11;14.47;;;4.73;;
32746;SDS011;19118;50.860;13.662;2024-01-06T12:38:12;23.80;;;4.82;;
32746;SDS011;19118;50.860;13.662;2024-01-06T12:43:12;10.90;;;5.93;;
32746;SDS011;19118;50.860;13.662;2024-01-06T12:48:12;19.53;;;5.17;;
32746;SDS011;19118;50.860;13.662;2024-01-06T12:53:12;12.43;;;5.70;;
32746;SDS011;19118;50.860;13.662;2024-01-06T12:58:15;18.48;;;5.80;;
32746;SDS011;19118;50.860;13.662;2024-01-06T13:03:15;20.00;;;6.70;;
32746;SDS011;19118;50.860;13.662;2024-01-06T13:08:15;18.87;;;8.30;;
32746;SDS011;19118;50.860;13.662;2024-01-06T13:13:16;16.40;;;7.97;;
32746;SDS011;19118;50.860;13.662;2024-01-06T13:18:16;17.52;;;7.95;;
32746;SDS011;19118;50.860;13.662;2024-01-06T13:23:17;21.83;;;8.48;;
32746;SDS011;19118;50.860;13.662;2024-01-06T13:28:17;20.13;;;8.75;;
32746;SDS011;19118;50.860;13.662;2024-01-06T13:33:18;28.25;;;10.25;;
32746;SDS011;19118;50.860;13.662;2024-01-06T13:38:18;28.53;;;12.27;;
32746;SDS011;19118;50.860;13.662;2024-01-06T13:43:19;29.95;;;12.80;;
32746;SDS011;19118;50.860;13.662;2024-01-06T13:48:19;30.52;;;14.35;;
32746;SDS011;19118;50.860;13.662;2024-01-06T13:53:19;32.90;;;15.02;;
32746;SDS011;19118;50.860;13.662;2024-01-06T13:58:20;36.78;;;17.60;;
32746;SDS011;19118;50.860;13.662;2024-01-06T14:03:20;34.57;;;18.07;;
32746;SDS011;19118;50.860;13.662;2024-01-06T14:08:22;38.22;;;17.85;;
32746;SDS011;19118;50.860;13.662;2024-01-06T14:13:23;44.22;;;18.60;;
32746;SDS011;19118;50.860;13.662;2024-01-06T14:18:24;43.77;;;23.60;;
32746;SDS011;19118;50.860;13.662;2024-01-06T14:23:24;50.87;;;23.53;;
32746;SDS011;19118;50.860;13.662;2024-01-06T14:28:24;48.33;;;24.40;;
32746;SDS011;19118;50.860;13.662;2024-01-06T14:33:25;62.38;;;27.20;;
32746;SDS011;19118;50.860;13.662;2024-01-06T14:38:25;69.00;;;30.60;;
32746;SDS011;19118;50.860;13.662;2024-01-06T14:43:25;72.88;;;31.63;;
32746;SDS011;19118;50.860;13.662;2024-01-06T14:48:26;59.07;;;28.80;;
32746;SDS011;19118;50.860;13.662;2024-01-06T14:53:26;71.50;;;32.50;;
32746;SDS011;19118;50.860;13.662;2024-01-06T14:58:26;71.57;;;31.00;;
32746;SDS011;19118;50.860;13.662;2024-01-06T15:03:27;77.67;;;35.70;;
32746;SDS011;19118;50.860;13.662;2024-01-06T15:08:27;84.35;;;29.45;;
32746;SDS011;19118;50.860;13.662;2024-01-06T15:13:28;80.07;;;37.42;;
32746;SDS011;19118;50.860;13.662;2024-01-06T15:18:28;128.88;;;35.15;;
32746;SDS011;19118;50.860;13.662;2024-01-06T15:23:28;70.97;;;35.57;;
32746;SDS011;19118;50.860;13.662;2024-01-06T15:28:29;73.90;;;30.58;;
32746;SDS011;19118;50.860;13.662;2024-01-06T15:33:29;60.25;;;30.38;;
32746;SDS011;19118;50.860;13.662;2024-01-06T15:38:29;92.90;;;38.27;;
32746;SDS011;19118;50.860;13.662;2024-01-06T15:43:30;227.70;;;37.30;;
32746;SDS011;19118;50.860;13.662;2024-01-06T15:48:30;360.02;;;41.42;;
32746;SDS011;19118;50.860;13.662;2024-01-06T15:53:32;241.02;;;37.97;;
32746;SDS011;19118;50.860;13.662;2024-01-06T15:58:33;529.55;;;47.42;;
32746;SDS011;19118;50.860;13.662;2024-01-06T16:03:33;390.53;;;46.03;;
32746;SDS011;19118;50.860;13.662;2024-01-06T16:08:34;470.35;;;46.78;;
32746;SDS011;19118;50.860;13.662;2024-01-06T16:13:34;662.22;;;54.97;;
32746;SDS011;19118;50.860;13.662;2024-01-06T16:18:35;531.43;;;55.70;;
32746;SDS011;19118;50.860;13.662;2024-01-06T16:23:35;141.47;;;40.67;;
32746;SDS011;19118;50.860;13.662;2024-01-06T16:28:35;288.00;;;45.53;;
32746;SDS011;19118;50.860;13.662;2024-01-06T16:33:36;716.70;;;64.27;;
32746;SDS011;19118;50.860;13.662;2024-01-06T16:38:36;201.90;;;41.83;;
32746;SDS011;19118;50.860;13.662;2024-01-06T16:43:36;810.43;;;72.97;;
32746;SDS011;19118;50.860;13.662;2024-01-06T16:48:38;914.88;;;77.05;;
32746;SDS011;19118;50.860;13.662;2024-01-06T16:53:39;1011.77;;;84.83;;
32746;SDS011;19118;50.860;13.662;2024-01-06T16:58:39;630.37;;;69.60;;
32746;SDS011;19118;50.860;13.662;2024-01-06T17:03:42;437.63;;;59.92;;
32746;SDS011;19118;50.860;13.662;2024-01-06T17:08:42;164.07;;;47.33;;
32746;SDS011;19118;50.860;13.662;2024-01-06T17:13:43;441.40;;;60.67;;
32746;SDS011;19118;50.860;13.662;2024-01-06T17:18:43;276.17;;;54.33;;
32746;SDS011;19118;50.860;13.662;2024-01-06T17:23:43;425.75;;;58.45;;
32746;SDS011;19118;50.860;13.662;2024-01-06T17:28:45;453.40;;;66.47;;
32746;SDS011;19118;50.860;13.662;2024-01-06T17:33:46;462.38;;;64.22;;
32746;SDS011;19118;50.860;13.662;2024-01-06T17:38:46;247.68;;;57.50;;
32746;SDS011;19118;50.860;13.662;2024-01-06T17:43:47;628.53;;;72.20;;
32746;SDS011;19118;50.860;13.662;2024-01-06T17:48:47;413.63;;;73.18;;
32746;SDS011;19118;50.860;13.662;2024-01-06T17:53:47;563.37;;;68.53;;
32746;SDS011;19118;50.860;13.662;2024-01-06T17:58:48;826.67;;;83.78;;
32746;SDS011;19118;50.860;13.662;2024-01-06T18:03:48;484.70;;;64.93;;
32746;SDS011;19118;50.860;13.662;2024-01-06T18:08:49;881.35;;;91.00;;
32746;SDS011;19118;50.860;13.662;2024-01-06T18:13:49;482.45;;;67.32;;
32746;SDS011;19118;50.860;13.662;2024-01-06T18:18:50;1007.25;;;98.88;;
32746;SDS011;19118;50.860;13.662;2024-01-06T18:23:52;1308.35;;;110.28;;
32746;SDS011;19118;50.860;13.662;2024-01-06T18:28:52;1108.57;;;102.83;;
32746;SDS011;19118;50.860;13.662;2024-01-06T18:33:53;1054.68;;;94.18;;
32746;SDS011;19118;50.860;13.662;2024-01-06T18:38:53;597.10;;;73.03;;
32746;SDS011;19118;50.860;13.662;2024-01-06T18:43:53;883.13;;;86.27;;
32746;SDS011;19118;50.860;13.662;2024-01-06T18:48:53;754.03;;;75.03;;
32746;SDS011;19118;50.860;13.662;2024-01-06T18:53:54;741.00;;;90.97;;
32746;SDS011;19118;50.860;13.662;2024-01-06T18:58:54;1002.58;;;104.35;;
32746;SDS011;19118;50.860;13.662;2024-01-06T19:03:55;1038.90;;;94.82;;
32746;SDS011;19118;50.860;13.662;2024-01-06T19:08:56;1503.95;;;119.88;;
32746;SDS011;19118;50.860;13.662;2024-01-06T19:13:56;1418.07;;;118.77;;
32746;SDS011;19118;50.860;13.662;2024-01-06T19:18:56;1137.93;;;102.00;;
32746;SDS011;19118;50.860;13.662;2024-01-06T19:23:57;977.90;;;98.95;;
32746;SDS011;19118;50.860;13.662;2024-01-06T19:28:57;1253.57;;;113.93;;
32746;SDS011;19118;50.860;13.662;2024-01-06T19:33:58;1318.77;;;106.93;;
32746;SDS011;19118;50.860;13.662;2024-01-06T19:38:58;1093.80;;;95.75;;
32746;SDS011;19118;50.860;13.662;2024-01-06T19:43:59;1141.60;;;95.70;;
32746;SDS011;19118;50.860;13.662;2024-01-06T19:49:01;794.40;;;82.70;;
32746;SDS011;19118;50.860;13.662;2024-01-06T19:54:01;1094.03;;;92.82;;
32746;SDS011;19118;50.860;13.662;2024-01-06T19:59:02;992.70;;;93.30;;
32746;SDS011;19118;50.860;13.662;2024-01-06T20:04:02;635.43;;;76.97;;
32746;SDS011;19118;50.860;13.662;2024-01-06T20:09:03;1108.60;;;94.63;;
32746;SDS011;19118;50.860;13.662;2024-01-06T20:14:06;898.28;;;79.53;;
32746;SDS011;19118;50.860;13.662;2024-01-06T20:19:07;599.83;;;64.45;;
32746;SDS011;19118;50.860;13.662;2024-01-06T20:24:07;1063.53;;;92.65;;
32746;SDS011;19118;50.860;13.662;2024-01-06T20:29:07;252.40;;;45.43;;
32746;SDS011;19118;50.860;13.662;2024-01-06T20:34:08;1096.87;;;84.60;;
32746;SDS011;19118;50.860;13.662;2024-01-06T20:39:08;1083.10;;;91.33;;
32746;SDS011;19118;50.860;13.662;2024-01-06T20:44:10;617.47;;;69.65;;
32746;SDS011;19118;50.860;13.662;2024-01-06T20:49:10;381.60;;;53.47;;
32746;SDS011;19118;50.860;13.662;2024-01-06T20:54:10;528.33;;;59.38;;
32746;SDS011;19118;50.860;13.662;2024-01-06T20:59:11;1894.18;;;137.73;;
32746;SDS011;19118;50.860;13.662;2024-01-06T21:04:11;1532.17;;;109.00;;
32746;SDS011;19118;50.860;13.662;2024-01-06T21:09:11;1370.68;;;106.05;;
32746;SDS011;19118;50.860;13.662;2024-01-06T21:14:12;1580.68;;;118.75;;
32746;SDS011;19118;50.860;13.662;2024-01-06T21:19:13;1268.57;;;93.93;;
32746;SDS011;19118;50.860;13.662;2024-01-06T21:24:13;1244.53;;;96.97;;
32746;SDS011;19118;50.860;13.662;2024-01-06T21:29:14;1092.00;;;99.68;;
32746;SDS011;19118;50.860;13.662;2024-01-06T21:34:14;911.30;;;85.17;;
32746;SDS011;19118;50.860;13.662;2024-01-06T21:39:14;1175.70;;;100.80;;
32746;SDS011;19118;50.860;13.662;2024-01-06T21:44:15;1254.95;;;109.43;;
32746;SDS011;19118;50.860;13.662;2024-01-06T21:49:15;920.97;;;88.03;;
32746;SDS011;19118;50.860;13.662;2024-01-06T21:54:16;721.78;;;70.32;;
32746;SDS011;19118;50.860;13.662;2024-01-06T21:59:17;1116.07;;;95.63;;
32746;SDS011;19118;50.860;13.662;2024-01-06T22:04:17;928.45;;;82.15;;
32746;SDS011;19118;50.860;13.662;2024-01-06T22:09:17;765.87;;;67.10;;
32746;SDS011;19118;50.860;13.662;2024-01-06T22:14:18;809.58;;;67.28;;
32746;SDS011;19118;50.860;13.662;2024-01-06T22:19:18;990.30;;;76.00;;
32746;SDS011;19118;50.860;13.662;2024-01-06T22:24:19;931.90;;;74.30;;
32746;SDS011;19118;50.860;13.662;2024-01-06T22:29:20;573.47;;;55.53;;
32746;SDS011;19118;50.860;13.662;2024-01-06T22:34:20;1157.53;;;106.87;;
32746;SDS011;19118;50.860;13.662;2024-01-06T22:39:21;1336.45;;;99.55;;
32746;SDS011;19118;50.860;13.662;2024-01-06T22:44:25;1038.65;;;83.15;;
32746;SDS011;19118;50.860;13.662;2024-01-06T22:49:25;948.80;;;88.97;;
32746;SDS011;19118;50.860;13.662;2024-01-06T22:54:25;715.28;;;63.15;;
32746;SDS011;19118;50.860;13.662;2024-01-06T22:59:26;618.40;;;64.50;;
32746;SDS011;19118;50.860;13.662;2024-01-06T23:04:26;982.60;;;79.10;;
32746;SDS011;19118;50.860;13.662;2024-01-06T23:09:26;623.50;;;67.38;;
32746;SDS011;19118;50.860;13.662;2024-01-06T23:14:27;801.40;;;77.93;;
32746;SDS011;19118;50.860;13.662;2024-01-06T23:19:27;441.43;;;54.03;;
32746;SDS011;19118;50.860;13.662;2024-01-06T23:24:27;418.33;;;50.20;;
32746;SDS011;19118;50.860;13.662;2024-01-06T23:29:28;168.20;;;37.93;;
32746;SDS011;19118;50.860;13.662;2024-01-06T23:34:28;210.57;;;41.40;;
32746;SDS011;19118;50.860;13.662;2024-01-06T23:39:31;282.33;;;43.65;;
32746;SDS011;19118;50.860;13.662;2024-01-06T23:44:32;329.33;;;45.38;;
32746;SDS011;19118;50.860;13.662;2024-01-06T23:49:32;429.77;;;51.75;;
32746;SDS011;19118;50.860;13.662;2024-01-06T23:54:32;139.03;;;38.30;;
32746;SDS011;19118;50.860;13.662;2024-01-06T23:59:33;151.77;;;37.43;;
